sensor_id;sensor_type;location;lat;lon;timestamp;temperature;humidity
12060;DHT22;6091;51.432;6.880;2023-06-01T00:00:13;27.20;32.90
12060;DHT22;6091;51.432;6.880;2023-06-01T00:02:41;27.20;32.90
12060;DHT22;6091;51.432;6.880;2023-06-01T00:05:08;27.20;33.00
12060;DHT22;6091;51.432;6.880;2023-06-01T00:07:35;27.20;33.00
12060;DHT22;6091;51.432;6.880;2023-06-01T00:10:03;27.20;33.00
12060;DHT22;6091;51.432;6.880;2023-06-01T00:12:30;27.20;33.00
12060;DHT22;6091;51.432;6.880;2023-06-01T00:14:57;27.20;33.10
12060;DHT22;6091;51.432;6.880;2023-06-01T00:17:24;27.10;33.00
12060;DHT22;6091;51.432;6.880;2023-06-01T00:19:51;27.10;33.10
12060;DHT22;6091;51.432;6.880;2023-06-01T00:22:19;27.10;33.10
12060;DHT22;6091;51.432;6.880;2023-06-01T00:24:47;27.10;33.10
12060;DHT22;6091;51.432;6.880;2023-06-01T00:27:14;27.10;33.10
12060;DHT22;6091;51.432;6.880;2023-06-01T00:29:41;27.10;33.20
12060;DHT22;6091;51.432;6.880;2023-06-01T00:32:08;27.10;33.20
12060;DHT22;6091;51.432;6.880;2023-06-01T00:34:35;27.00;33.20
12060;DHT22;6091;51.432;6.880;2023-06-01T00:37:02;27.00;33.20
12060;DHT22;6091;51.432;6.880;2023-06-01T00:39:29;27.10;33.30
12060;DHT22;6091;51.432;6.880;2023-06-01T00:41:56;27.00;33.20
12060;DHT22;6091;51.432;6.880;2023-06-01T00:44:24;27.00;33.30
12060;DHT22;6091;51.432;6.880;2023-06-01T00:46:51;27.00;33.30
12060;DHT22;6091;51.432;6.880;2023-06-01T00:49:19;27.00;33.30
12060;DHT22;6091;51.432;6.880;2023-06-01T00:51:47;27.00;33.30
12060;DHT22;6091;51.432;6.880;2023-06-01T00:54:14;27.00;33.40
12060;DHT22;6091;51.432;6.880;2023-06-01T00:56:41;27.00;33.40
12060;DHT22;6091;51.432;6.880;2023-06-01T00:59:10;27.00;33.40
12060;DHT22;6091;51.432;6.880;2023-06-01T01:01:38;27.00;33.40
12060;DHT22;6091;51.432;6.880;2023-06-01T01:04:09;27.00;33.50
12060;DHT22;6091;51.432;6.880;2023-06-01T01:07:02;26.90;33.40
12060;DHT22;6091;51.432;6.880;2023-06-01T01:15:29;26.90;33.60
12060;DHT22;6091;51.432;6.880;2023-06-01T01:18:06;26.90;33.60
12060;DHT22;6091;51.432;6.880;2023-06-01T01:20:48;26.90;33.50
12060;DHT22;6091;51.432;6.880;2023-06-01T01:23:55;26.90;33.60
12060;DHT22;6091;51.432;6.880;2023-06-01T01:29:45;26.90;33.70
12060;DHT22;6091;51.432;6.880;2023-06-01T01:32:13;26.90;33.60
12060;DHT22;6091;51.432;6.880;2023-06-01T01:34:43;26.90;33.60
12060;DHT22;6091;51.432;6.880;2023-06-01T01:37:13;26.90;34.30
12060;DHT22;6091;51.432;6.880;2023-06-01T01:39:40;26.90;33.70
12060;DHT22;6091;51.432;6.880;2023-06-01T01:42:07;26.80;33.70
12060;DHT22;6091;51.432;6.880;2023-06-01T01:44:34;26.80;33.70
12060;DHT22;6091;51.432;6.880;2023-06-01T01:47:19;26.80;33.70
12060;DHT22;6091;51.432;6.880;2023-06-01T01:50:08;26.90;34.00
12060;DHT22;6091;51.432;6.880;2023-06-01T01:52:43;26.80;33.80
12060;DHT22;6091;51.432;6.880;2023-06-01T01:55:12;26.80;33.90
12060;DHT22;6091;51.432;6.880;2023-06-01T01:57:43;26.80;33.80
12060;DHT22;6091;51.432;6.880;2023-06-01T02:00:11;26.80;33.80
12060;DHT22;6091;51.432;6.880;2023-06-01T02:02:41;26.80;33.90
12060;DHT22;6091;51.432;6.880;2023-06-01T02:05:11;26.80;33.90
12060;DHT22;6091;51.432;6.880;2023-06-01T02:07:38;26.80;33.90
12060;DHT22;6091;51.432;6.880;2023-06-01T02:10:07;26.70;33.90
12060;DHT22;6091;51.432;6.880;2023-06-01T02:12:34;26.70;34.00
12060;DHT22;6091;51.432;6.880;2023-06-01T02:15:02;26.80;34.00
12060;DHT22;6091;51.432;6.880;2023-06-01T02:17:31;26.70;33.90
12060;DHT22;6091;51.432;6.880;2023-06-01T02:19:59;26.70;33.90
12060;DHT22;6091;51.432;6.880;2023-06-01T02:22:26;26.70;34.00
12060;DHT22;6091;51.432;6.880;2023-06-01T02:24:53;26.70;34.00
12060;DHT22;6091;51.432;6.880;2023-06-01T02:27:20;26.70;34.00
12060;DHT22;6091;51.432;6.880;2023-06-01T02:29:47;26.70;34.00
12060;DHT22;6091;51.432;6.880;2023-06-01T02:32:14;26.70;34.10
12060;DHT22;6091;51.432;6.880;2023-06-01T02:34:42;26.70;34.10
12060;DHT22;6091;51.432;6.880;2023-06-01T02:37:09;26.60;34.10
12060;DHT22;6091;51.432;6.880;2023-06-01T02:39:37;26.60;34.10
12060;DHT22;6091;51.432;6.880;2023-06-01T02:42:05;26.60;34.10
12060;DHT22;6091;51.432;6.880;2023-06-01T02:44:33;26.60;34.10
12060;DHT22;6091;51.432;6.880;2023-06-01T02:47:00;26.60;34.10
12060;DHT22;6091;51.432;6.880;2023-06-01T02:49:28;26.60;34.20
12060;DHT22;6091;51.432;6.880;2023-06-01T02:51:56;26.60;34.20
12060;DHT22;6091;51.432;6.880;2023-06-01T02:54:23;26.60;34.20
12060;DHT22;6091;51.432;6.880;2023-06-01T02:56:50;26.60;34.30
12060;DHT22;6091;51.432;6.880;2023-06-01T02:59:17;26.50;34.20
12060;DHT22;6091;51.432;6.880;2023-06-01T03:01:45;26.50;34.20
12060;DHT22;6091;51.432;6.880;2023-06-01T03:04:12;26.50;34.30
12060;DHT22;6091;51.432;6.880;2023-06-01T03:06:41;26.50;34.30
12060;DHT22;6091;51.432;6.880;2023-06-01T03:09:10;26.50;34.30
12060;DHT22;6091;51.432;6.880;2023-06-01T03:11:40;26.50;34.30
12060;DHT22;6091;51.432;6.880;2023-06-01T03:14:08;26.50;34.30
12060;DHT22;6091;51.432;6.880;2023-06-01T03:16:35;26.50;34.30
12060;DHT22;6091;51.432;6.880;2023-06-01T03:19:02;26.50;34.40
12060;DHT22;6091;51.432;6.880;2023-06-01T03:21:29;26.50;34.40
12060;DHT22;6091;51.432;6.880;2023-06-01T03:23:58;26.50;34.40
12060;DHT22;6091;51.432;6.880;2023-06-01T03:26:26;26.50;34.40
12060;DHT22;6091;51.432;6.880;2023-06-01T03:28:54;26.50;34.50
12060;DHT22;6091;51.432;6.880;2023-06-01T03:31:23;26.50;34.50
12060;DHT22;6091;51.432;6.880;2023-06-01T03:33:50;26.40;34.40
12060;DHT22;6091;51.432;6.880;2023-06-01T03:36:18;26.40;34.50
12060;DHT22;6091;51.432;6.880;2023-06-01T03:38:45;26.40;34.50
12060;DHT22;6091;51.432;6.880;2023-06-01T03:41:12;26.40;34.50
12060;DHT22;6091;51.432;6.880;2023-06-01T03:43:39;26.40;34.50
12060;DHT22;6091;51.432;6.880;2023-06-01T03:46:06;26.40;34.50
12060;DHT22;6091;51.432;6.880;2023-06-01T03:48:33;26.40;34.50
12060;DHT22;6091;51.432;6.880;2023-06-01T03:51:00;26.40;34.60
12060;DHT22;6091;51.432;6.880;2023-06-01T03:53:28;26.40;34.60
12060;DHT22;6091;51.432;6.880;2023-06-01T03:55:58;26.40;34.60
12060;DHT22;6091;51.432;6.880;2023-06-01T03:58:25;26.40;34.60
12060;DHT22;6091;51.432;6.880;2023-06-01T04:00:51;26.40;34.60
12060;DHT22;6091;51.432;6.880;2023-06-01T04:03:19;26.30;34.60
12060;DHT22;6091;51.432;6.880;2023-06-01T04:05:48;26.30;34.60
12060;DHT22;6091;51.432;6.880;2023-06-01T04:08:16;26.30;34.60
12060;DHT22;6091;51.432;6.880;2023-06-01T04:10:46;26.30;34.70
12060;DHT22;6091;51.432;6.880;2023-06-01T04:13:13;26.30;34.70
12060;DHT22;6091;51.432;6.880;2023-06-01T04:15:40;26.30;34.70
12060;DHT22;6091;51.432;6.880;2023-06-01T04:18:08;26.30;34.70
12060;DHT22;6091;51.432;6.880;2023-06-01T04:20:35;26.30;34.70
12060;DHT22;6091;51.432;6.880;2023-06-01T04:23:02;26.30;34.70
12060;DHT22;6091;51.432;6.880;2023-06-01T04:25:29;26.30;34.80
12060;DHT22;6091;51.432;6.880;2023-06-01T04:27:57;26.30;34.80
12060;DHT22;6091;51.432;6.880;2023-06-01T04:30:24;26.30;34.80
12060;DHT22;6091;51.432;6.880;2023-06-01T04:32:51;26.30;34.80
12060;DHT22;6091;51.432;6.880;2023-06-01T04:35:20;26.30;34.80
12060;DHT22;6091;51.432;6.880;2023-06-01T04:37:47;26.30;34.80
12060;DHT22;6091;51.432;6.880;2023-06-01T04:40:17;26.30;34.80
12060;DHT22;6091;51.432;6.880;2023-06-01T04:42:44;26.30;34.80
12060;DHT22;6091;51.432;6.880;2023-06-01T04:45:24;26.30;34.80
12060;DHT22;6091;51.432;6.880;2023-06-01T04:47:52;26.30;34.80
12060;DHT22;6091;51.432;6.880;2023-06-01T04:50:19;26.30;34.80
12060;DHT22;6091;51.432;6.880;2023-06-01T04:52:46;26.30;34.90
12060;DHT22;6091;51.432;6.880;2023-06-01T04:55:15;26.20;34.80
12060;DHT22;6091;51.432;6.880;2023-06-01T04:57:43;26.30;34.90
12060;DHT22;6091;51.432;6.880;2023-06-01T05:00:13;26.30;34.90
12060;DHT22;6091;51.432;6.880;2023-06-01T05:02:46;26.20;34.90
12060;DHT22;6091;51.432;6.880;2023-06-01T05:05:15;26.20;34.90
12060;DHT22;6091;51.432;6.880;2023-06-01T05:07:43;26.30;34.90
12060;DHT22;6091;51.432;6.880;2023-06-01T05:10:11;26.20;34.90
12060;DHT22;6091;51.432;6.880;2023-06-01T05:12:39;26.20;34.90
12060;DHT22;6091;51.432;6.880;2023-06-01T05:15:07;26.20;34.90
12060;DHT22;6091;51.432;6.880;2023-06-01T05:17:35;26.20;34.90
12060;DHT22;6091;51.432;6.880;2023-06-01T05:20:02;26.20;34.90
12060;DHT22;6091;51.432;6.880;2023-06-01T05:22:30;26.20;34.90
12060;DHT22;6091;51.432;6.880;2023-06-01T05:24:57;26.20;34.90
12060;DHT22;6091;51.432;6.880;2023-06-01T05:27:24;26.30;35.00
12060;DHT22;6091;51.432;6.880;2023-06-01T05:29:51;26.20;34.90
12060;DHT22;6091;51.432;6.880;2023-06-01T05:32:18;26.20;35.00
12060;DHT22;6091;51.432;6.880;2023-06-01T05:34:45;26.20;34.90
12060;DHT22;6091;51.432;6.880;2023-06-01T05:37:12;26.20;35.00
12060;DHT22;6091;51.432;6.880;2023-06-01T05:39:39;26.20;35.00
12060;DHT22;6091;51.432;6.880;2023-06-01T05:42:07;26.20;35.00
12060;DHT22;6091;51.432;6.880;2023-06-01T05:44:34;26.20;35.00
12060;DHT22;6091;51.432;6.880;2023-06-01T05:47:01;26.20;35.00
12060;DHT22;6091;51.432;6.880;2023-06-01T05:49:28;26.20;35.00
12060;DHT22;6091;51.432;6.880;2023-06-01T05:51:58;27.70;35.90
12060;DHT22;6091;51.432;6.880;2023-06-01T05:54:25;26.20;35.00
12060;DHT22;6091;51.432;6.880;2023-06-01T05:56:53;26.20;35.10
12060;DHT22;6091;51.432;6.880;2023-06-01T05:59:21;26.20;35.70
12060;DHT22;6091;51.432;6.880;2023-06-01T06:01:48;26.20;35.20
12060;DHT22;6091;51.432;6.880;2023-06-01T06:04:15;26.20;35.20
12060;DHT22;6091;51.432;6.880;2023-06-01T06:06:43;26.20;35.20
12060;DHT22;6091;51.432;6.880;2023-06-01T06:09:10;26.30;35.20
12060;DHT22;6091;51.432;6.880;2023-06-01T06:11:39;26.20;35.10
12060;DHT22;6091;51.432;6.880;2023-06-01T06:14:06;26.20;35.10
12060;DHT22;6091;51.432;6.880;2023-06-01T06:16:34;26.30;35.10
12060;DHT22;6091;51.432;6.880;2023-06-01T06:19:01;26.20;34.90
12060;DHT22;6091;51.432;6.880;2023-06-01T06:21:28;26.30;35.00
12060;DHT22;6091;51.432;6.880;2023-06-01T06:23:55;26.20;34.80
12060;DHT22;6091;51.432;6.880;2023-06-01T06:26:26;26.30;34.90
12060;DHT22;6091;51.432;6.880;2023-06-01T06:28:53;26.30;34.90
12060;DHT22;6091;51.432;6.880;2023-06-01T06:31:21;26.30;34.80
12060;DHT22;6091;51.432;6.880;2023-06-01T06:33:49;26.30;34.80
12060;DHT22;6091;51.432;6.880;2023-06-01T06:36:16;26.30;34.70
12060;DHT22;6091;51.432;6.880;2023-06-01T06:38:43;26.30;34.70
12060;DHT22;6091;51.432;6.880;2023-06-01T06:41:11;26.30;34.70
12060;DHT22;6091;51.432;6.880;2023-06-01T06:43:38;26.30;34.60
12060;DHT22;6091;51.432;6.880;2023-06-01T06:46:05;26.30;34.60
12060;DHT22;6091;51.432;6.880;2023-06-01T06:48:32;26.30;34.60
12060;DHT22;6091;51.432;6.880;2023-06-01T06:50:59;26.30;34.60
12060;DHT22;6091;51.432;6.880;2023-06-01T06:53:27;26.30;34.60
12060;DHT22;6091;51.432;6.880;2023-06-01T06:55:54;26.30;34.60
12060;DHT22;6091;51.432;6.880;2023-06-01T06:58:21;26.30;34.50
12060;DHT22;6091;51.432;6.880;2023-06-01T07:00:48;26.30;34.50
12060;DHT22;6091;51.432;6.880;2023-06-01T07:03:16;26.30;34.50
12060;DHT22;6091;51.432;6.880;2023-06-01T07:05:43;26.30;34.50
12060;DHT22;6091;51.432;6.880;2023-06-01T07:08:12;26.30;34.50
12060;DHT22;6091;51.432;6.880;2023-06-01T07:10:39;26.30;34.50
12060;DHT22;6091;51.432;6.880;2023-06-01T07:13:06;26.40;34.60
12060;DHT22;6091;51.432;6.880;2023-06-01T07:15:33;26.40;34.60
12060;DHT22;6091;51.432;6.880;2023-06-01T07:18:00;26.40;34.60
12060;DHT22;6091;51.432;6.880;2023-06-01T07:20:27;26.40;34.60
12060;DHT22;6091;51.432;6.880;2023-06-01T07:22:54;26.50;34.60
12060;DHT22;6091;51.432;6.880;2023-06-01T07:25:21;26.50;34.60
12060;DHT22;6091;51.432;6.880;2023-06-01T07:27:48;26.40;34.70
12060;DHT22;6091;51.432;6.880;2023-06-01T07:30:16;26.50;34.80
12060;DHT22;6091;51.432;6.880;2023-06-01T07:32:43;26.50;34.90
12060;DHT22;6091;51.432;6.880;2023-06-01T07:35:10;26.50;34.90
12060;DHT22;6091;51.432;6.880;2023-06-01T07:37:37;26.50;34.80
12060;DHT22;6091;51.432;6.880;2023-06-01T07:40:05;26.60;35.00
12060;DHT22;6091;51.432;6.880;2023-06-01T07:42:35;26.60;34.90
12060;DHT22;6091;51.432;6.880;2023-06-01T07:45:02;26.60;34.90
12060;DHT22;6091;51.432;6.880;2023-06-01T07:47:29;26.60;34.90
12060;DHT22;6091;51.432;6.880;2023-06-01T07:49:57;26.60;34.80
12060;DHT22;6091;51.432;6.880;2023-06-01T07:52:24;26.60;35.00
12060;DHT22;6091;51.432;6.880;2023-06-01T07:54:51;26.60;34.90
12060;DHT22;6091;51.432;6.880;2023-06-01T07:57:19;26.70;35.00
12060;DHT22;6091;51.432;6.880;2023-06-01T07:59:46;26.70;35.00
12060;DHT22;6091;51.432;6.880;2023-06-01T08:02:13;26.70;34.90
12060;DHT22;6091;51.432;6.880;2023-06-01T08:04:40;26.80;34.90
12060;DHT22;6091;51.432;6.880;2023-06-01T08:07:08;26.80;34.90
12060;DHT22;6091;51.432;6.880;2023-06-01T08:09:36;26.80;34.80
12060;DHT22;6091;51.432;6.880;2023-06-01T08:12:06;26.90;34.90
12060;DHT22;6091;51.432;6.880;2023-06-01T08:14:33;26.90;34.80
12060;DHT22;6091;51.432;6.880;2023-06-01T08:17:01;26.90;34.90
12060;DHT22;6091;51.432;6.880;2023-06-01T08:19:29;26.90;34.80
12060;DHT22;6091;51.432;6.880;2023-06-01T08:21:56;26.90;34.80
12060;DHT22;6091;51.432;6.880;2023-06-01T08:24:24;26.90;34.70
12060;DHT22;6091;51.432;6.880;2023-06-01T08:26:55;27.00;34.80
12060;DHT22;6091;51.432;6.880;2023-06-01T08:29:26;27.00;34.80
12060;DHT22;6091;51.432;6.880;2023-06-01T08:32:09;27.00;34.80
12060;DHT22;6091;51.432;6.880;2023-06-01T08:34:36;27.00;34.70
12060;DHT22;6091;51.432;6.880;2023-06-01T08:37:03;27.00;34.80
12060;DHT22;6091;51.432;6.880;2023-06-01T08:39:31;27.00;34.70
12060;DHT22;6091;51.432;6.880;2023-06-01T08:44:58;26.90;34.90
12060;DHT22;6091;51.432;6.880;2023-06-01T08:47:26;27.00;35.10
12060;DHT22;6091;51.432;6.880;2023-06-01T08:49:58;27.00;35.60
12060;DHT22;6091;51.432;6.880;2023-06-01T08:52:28;27.10;34.90
12060;DHT22;6091;51.432;6.880;2023-06-01T08:55:00;27.10;34.80
12060;DHT22;6091;51.432;6.880;2023-06-01T08:57:29;27.20;34.70
12060;DHT22;6091;51.432;6.880;2023-06-01T08:59:59;27.20;35.40
12060;DHT22;6091;51.432;6.880;2023-06-01T09:02:27;27.20;34.70
12060;DHT22;6091;51.432;6.880;2023-06-01T09:04:54;27.20;34.60
12060;DHT22;6091;51.432;6.880;2023-06-01T09:07:22;27.20;34.60
12060;DHT22;6091;51.432;6.880;2023-06-01T09:09:50;27.10;34.70
12060;DHT22;6091;51.432;6.880;2023-06-01T09:12:29;27.20;34.80
12060;DHT22;6091;51.432;6.880;2023-06-01T09:15:13;27.30;34.80
12060;DHT22;6091;51.432;6.880;2023-06-01T09:17:45;27.30;34.80
12060;DHT22;6091;51.432;6.880;2023-06-01T09:20:28;27.20;34.60
12060;DHT22;6091;51.432;6.880;2023-06-01T09:22:55;27.30;34.70
12060;DHT22;6091;51.432;6.880;2023-06-01T09:25:27;27.30;34.60
12060;DHT22;6091;51.432;6.880;2023-06-01T09:27:59;27.30;34.60
12060;DHT22;6091;51.432;6.880;2023-06-01T09:30:42;27.40;34.60
12060;DHT22;6091;51.432;6.880;2023-06-01T09:33:12;27.40;34.50
12060;DHT22;6091;51.432;6.880;2023-06-01T09:35:45;27.40;34.50
12060;DHT22;6091;51.432;6.880;2023-06-01T09:38:22;27.40;34.50
12060;DHT22;6091;51.432;6.880;2023-06-01T09:41:01;27.40;34.50
12060;DHT22;6091;51.432;6.880;2023-06-01T09:43:32;27.30;34.60
12060;DHT22;6091;51.432;6.880;2023-06-01T09:46:10;27.20;34.80
12060;DHT22;6091;51.432;6.880;2023-06-01T09:48:41;27.20;34.70
12060;DHT22;6091;51.432;6.880;2023-06-01T09:51:24;27.30;34.70
12060;DHT22;6091;51.432;6.880;2023-06-01T09:53:56;27.40;34.60
12060;DHT22;6091;51.432;6.880;2023-06-01T09:56:23;27.40;35.20
12060;DHT22;6091;51.432;6.880;2023-06-01T09:58:57;27.50;34.50
12060;DHT22;6091;51.432;6.880;2023-06-01T10:01:29;27.50;34.50
12060;DHT22;6091;51.432;6.880;2023-06-01T10:04:00;27.60;34.50
12060;DHT22;6091;51.432;6.880;2023-06-01T10:06:33;27.60;34.50
12060;DHT22;6091;51.432;6.880;2023-06-01T10:09:10;27.60;34.40
12060;DHT22;6091;51.432;6.880;2023-06-01T10:11:41;27.60;34.40
12060;DHT22;6091;51.432;6.880;2023-06-01T10:14:10;27.60;34.90
12060;DHT22;6091;51.432;6.880;2023-06-01T10:16:37;27.70;34.30
12060;DHT22;6091;51.432;6.880;2023-06-01T10:19:04;27.70;34.30
12060;DHT22;6091;51.432;6.880;2023-06-01T10:21:33;27.70;34.30
12060;DHT22;6091;51.432;6.880;2023-06-01T10:24:00;27.70;34.20
12060;DHT22;6091;51.432;6.880;2023-06-01T10:26:28;27.80;34.40
12060;DHT22;6091;51.432;6.880;2023-06-01T10:29:02;27.70;34.20
12060;DHT22;6091;51.432;6.880;2023-06-01T10:31:40;27.70;34.10
12060;DHT22;6091;51.432;6.880;2023-06-01T10:34:10;27.60;34.10
12060;DHT22;6091;51.432;6.880;2023-06-01T10:39:31;27.70;34.10
12060;DHT22;6091;51.432;6.880;2023-06-01T10:52:35;27.80;34.10
12060;DHT22;6091;51.432;6.880;2023-06-01T10:57:41;28.00;34.00
12060;DHT22;6091;51.432;6.880;2023-06-01T11:00:22;28.10;34.10
12060;DHT22;6091;51.432;6.880;2023-06-01T11:05:43;28.20;33.90
12060;DHT22;6091;51.432;6.880;2023-06-01T11:10:59;28.30;33.60
12060;DHT22;6091;51.432;6.880;2023-06-01T11:13:34;28.40;33.60
12060;DHT22;6091;51.432;6.880;2023-06-01T11:18:47;28.50;33.70
12060;DHT22;6091;51.432;6.880;2023-06-01T11:21:39;28.60;33.70
12060;DHT22;6091;51.432;6.880;2023-06-01T11:29:22;28.70;33.50
12060;DHT22;6091;51.432;6.880;2023-06-01T11:31:58;28.90;33.30
12060;DHT22;6091;51.432;6.880;2023-06-01T11:34:35;29.00;33.20
12060;DHT22;6091;51.432;6.880;2023-06-01T11:37:15;29.10;33.10
12060;DHT22;6091;51.432;6.880;2023-06-01T11:39:45;29.20;33.10
12060;DHT22;6091;51.432;6.880;2023-06-01T11:42:14;29.30;33.20
12060;DHT22;6091;51.432;6.880;2023-06-01T11:44:45;29.30;33.10
12060;DHT22;6091;51.432;6.880;2023-06-01T11:47:22;29.50;33.10
12060;DHT22;6091;51.432;6.880;2023-06-01T11:49:50;29.50;33.00
12060;DHT22;6091;51.432;6.880;2023-06-01T11:52:19;29.70;33.00
12060;DHT22;6091;51.432;6.880;2023-06-01T11:54:47;29.90;33.10
12060;DHT22;6091;51.432;6.880;2023-06-01T11:57:15;30.00;33.00
12060;DHT22;6091;51.432;6.880;2023-06-01T11:59:44;30.20;33.00
12060;DHT22;6091;51.432;6.880;2023-06-01T12:02:22;30.30;32.90
12060;DHT22;6091;51.432;6.880;2023-06-01T12:04:56;30.50;32.70
12060;DHT22;6091;51.432;6.880;2023-06-01T12:10:21;30.90;32.50
12060;DHT22;6091;51.432;6.880;2023-06-01T12:12:49;31.10;32.70
12060;DHT22;6091;51.432;6.880;2023-06-01T12:15:17;31.30;32.60
12060;DHT22;6091;51.432;6.880;2023-06-01T12:17:51;31.50;32.50
12060;DHT22;6091;51.432;6.880;2023-06-01T12:20:32;31.70;32.20
12060;DHT22;6091;51.432;6.880;2023-06-01T12:25:57;32.10;31.90
12060;DHT22;6091;51.432;6.880;2023-06-01T12:28:26;32.20;31.70
12060;DHT22;6091;51.432;6.880;2023-06-01T12:31:09;32.40;32.10
12060;DHT22;6091;51.432;6.880;2023-06-01T12:33:41;32.60;31.60
12060;DHT22;6091;51.432;6.880;2023-06-01T12:36:29;32.80;32.00
12060;DHT22;6091;51.432;6.880;2023-06-01T12:39:02;33.00;31.60
12060;DHT22;6091;51.432;6.880;2023-06-01T12:41:31;33.10;31.90
12060;DHT22;6091;51.432;6.880;2023-06-01T12:43:58;33.30;31.90
12060;DHT22;6091;51.432;6.880;2023-06-01T12:46:29;33.40;31.80
12060;DHT22;6091;51.432;6.880;2023-06-01T12:49:15;33.60;31.30
12060;DHT22;6091;51.432;6.880;2023-06-01T12:51:48;33.80;31.10
12060;DHT22;6091;51.432;6.880;2023-06-01T12:54:15;33.90;31.40
12060;DHT22;6091;51.432;6.880;2023-06-01T12:56:44;34.00;31.20
12060;DHT22;6091;51.432;6.880;2023-06-01T12:59:15;34.10;30.90
12060;DHT22;6091;51.432;6.880;2023-06-01T13:01:43;34.20;30.80
12060;DHT22;6091;51.432;6.880;2023-06-01T13:04:11;34.30;30.60
12060;DHT22;6091;51.432;6.880;2023-06-01T13:06:38;34.40;30.60
12060;DHT22;6091;51.432;6.880;2023-06-01T13:09:06;34.50;30.40
12060;DHT22;6091;51.432;6.880;2023-06-01T13:11:34;34.50;30.20
12060;DHT22;6091;51.432;6.880;2023-06-01T13:14:02;34.60;30.10
12060;DHT22;6091;51.432;6.880;2023-06-01T13:16:29;34.70;30.10
12060;DHT22;6091;51.432;6.880;2023-06-01T13:18:56;34.70;29.90
12060;DHT22;6091;51.432;6.880;2023-06-01T13:21:23;34.80;29.70
12060;DHT22;6091;51.432;6.880;2023-06-01T13:23:50;34.70;29.50
12060;DHT22;6091;51.432;6.880;2023-06-01T13:26:17;34.60;29.30
12060;DHT22;6091;51.432;6.880;2023-06-01T13:28:45;34.40;29.10
12060;DHT22;6091;51.432;6.880;2023-06-01T13:31:12;34.30;29.10
12060;DHT22;6091;51.432;6.880;2023-06-01T13:33:40;34.10;29.00
12060;DHT22;6091;51.432;6.880;2023-06-01T13:36:07;33.90;28.90
12060;DHT22;6091;51.432;6.880;2023-06-01T13:38:34;33.50;28.70
12060;DHT22;6091;51.432;6.880;2023-06-01T13:41:01;33.30;28.90
12060;DHT22;6091;51.432;6.880;2023-06-01T13:43:28;33.20;29.00
12060;DHT22;6091;51.432;6.880;2023-06-01T13:45:55;33.00;29.00
12060;DHT22;6091;51.432;6.880;2023-06-01T13:48:22;32.80;29.00
12060;DHT22;6091;51.432;6.880;2023-06-01T13:50:50;32.70;29.10
12060;DHT22;6091;51.432;6.880;2023-06-01T13:53:18;32.50;29.00
12060;DHT22;6091;51.432;6.880;2023-06-01T13:55:46;32.40;29.00
12060;DHT22;6091;51.432;6.880;2023-06-01T13:58:13;32.20;29.00
12060;DHT22;6091;51.432;6.880;2023-06-01T14:00:40;32.10;28.90
12060;DHT22;6091;51.432;6.880;2023-06-01T14:03:09;31.90;28.90
12060;DHT22;6091;51.432;6.880;2023-06-01T14:05:36;31.80;29.00
12060;DHT22;6091;51.432;6.880;2023-06-01T14:08:23;31.60;29.10
12060;DHT22;6091;51.432;6.880;2023-06-01T14:10:50;31.40;29.10
12060;DHT22;6091;51.432;6.880;2023-06-01T14:13:17;31.30;29.20
12060;DHT22;6091;51.432;6.880;2023-06-01T14:15:44;29.10;28.20
12060;DHT22;6091;51.432;6.880;2023-06-01T14:18:11;31.00;29.30
12060;DHT22;6091;51.432;6.880;2023-06-01T14:20:38;30.90;29.40
12060;DHT22;6091;51.432;6.880;2023-06-01T14:23:06;30.70;29.40
12060;DHT22;6091;51.432;6.880;2023-06-01T14:25:35;30.60;29.40
12060;DHT22;6091;51.432;6.880;2023-06-01T14:28:02;30.50;29.50
12060;DHT22;6091;51.432;6.880;2023-06-01T14:30:29;30.40;29.50
12060;DHT22;6091;51.432;6.880;2023-06-01T14:32:57;30.30;29.60
12060;DHT22;6091;51.432;6.880;2023-06-01T14:35:24;30.30;29.70
12060;DHT22;6091;51.432;6.880;2023-06-01T14:37:53;30.20;29.80
12060;DHT22;6091;51.432;6.880;2023-06-01T14:40:22;30.10;29.80
12060;DHT22;6091;51.432;6.880;2023-06-01T14:42:49;30.00;29.90
12060;DHT22;6091;51.432;6.880;2023-06-01T14:45:16;30.00;30.00
12060;DHT22;6091;51.432;6.880;2023-06-01T14:47:45;29.90;30.00
12060;DHT22;6091;51.432;6.880;2023-06-01T14:50:12;29.80;30.00
12060;DHT22;6091;51.432;6.880;2023-06-01T14:52:39;29.80;30.10
12060;DHT22;6091;51.432;6.880;2023-06-01T14:55:07;29.70;30.20
12060;DHT22;6091;51.432;6.880;2023-06-01T14:57:34;29.70;30.20
12060;DHT22;6091;51.432;6.880;2023-06-01T15:00:02;29.70;30.10
12060;DHT22;6091;51.432;6.880;2023-06-01T15:02:32;29.70;30.00
12060;DHT22;6091;51.432;6.880;2023-06-01T15:04:59;29.60;30.00
12060;DHT22;6091;51.432;6.880;2023-06-01T15:07:27;29.60;29.80
12060;DHT22;6091;51.432;6.880;2023-06-01T15:09:54;29.60;29.80
12060;DHT22;6091;51.432;6.880;2023-06-01T15:12:21;29.50;29.70
12060;DHT22;6091;51.432;6.880;2023-06-01T15:14:48;29.50;29.70
12060;DHT22;6091;51.432;6.880;2023-06-01T15:17:17;29.40;29.60
12060;DHT22;6091;51.432;6.880;2023-06-01T15:19:44;29.40;30.00
12060;DHT22;6091;51.432;6.880;2023-06-01T15:22:13;29.40;29.60
12060;DHT22;6091;51.432;6.880;2023-06-01T15:24:40;29.30;29.50
12060;DHT22;6091;51.432;6.880;2023-06-01T15:27:08;29.30;29.60
12060;DHT22;6091;51.432;6.880;2023-06-01T15:29:35;29.20;29.60
12060;DHT22;6091;51.432;6.880;2023-06-01T15:32:03;29.20;29.60
12060;DHT22;6091;51.432;6.880;2023-06-01T15:34:30;29.20;29.70
12060;DHT22;6091;51.432;6.880;2023-06-01T15:36:58;29.10;29.70
12060;DHT22;6091;51.432;6.880;2023-06-01T15:39:25;29.10;29.80
12060;DHT22;6091;51.432;6.880;2023-06-01T15:41:52;29.10;29.80
12060;DHT22;6091;51.432;6.880;2023-06-01T15:44:21;29.10;29.90
12060;DHT22;6091;51.432;6.880;2023-06-01T15:46:48;29.20;29.90
12060;DHT22;6091;51.432;6.880;2023-06-01T15:49:15;29.30;30.00
12060;DHT22;6091;51.432;6.880;2023-06-01T15:51:42;29.30;29.90
12060;DHT22;6091;51.432;6.880;2023-06-01T15:54:09;29.30;29.90
12060;DHT22;6091;51.432;6.880;2023-06-01T15:56:36;29.40;29.90
12060;DHT22;6091;51.432;6.880;2023-06-01T15:59:03;29.30;29.90
12060;DHT22;6091;51.432;6.880;2023-06-01T16:01:30;29.40;29.90
12060;DHT22;6091;51.432;6.880;2023-06-01T16:03:58;29.40;29.90
12060;DHT22;6091;51.432;6.880;2023-06-01T16:06:25;29.30;29.80
12060;DHT22;6091;51.432;6.880;2023-06-01T16:08:52;29.40;29.90
12060;DHT22;6091;51.432;6.880;2023-06-01T16:11:20;29.30;29.80
12060;DHT22;6091;51.432;6.880;2023-06-01T16:13:47;29.20;29.80
12060;DHT22;6091;51.432;6.880;2023-06-01T16:16:14;29.20;29.80
12060;DHT22;6091;51.432;6.880;2023-06-01T16:18:42;29.20;29.80
12060;DHT22;6091;51.432;6.880;2023-06-01T16:21:09;29.20;29.90
12060;DHT22;6091;51.432;6.880;2023-06-01T16:23:36;29.20;29.90
12060;DHT22;6091;51.432;6.880;2023-06-01T16:26:03;29.10;29.90
12060;DHT22;6091;51.432;6.880;2023-06-01T16:28:31;29.10;29.90
12060;DHT22;6091;51.432;6.880;2023-06-01T16:30:58;29.10;29.90
12060;DHT22;6091;51.432;6.880;2023-06-01T16:33:25;29.00;29.80
12060;DHT22;6091;51.432;6.880;2023-06-01T16:35:55;29.00;29.90
12060;DHT22;6091;51.432;6.880;2023-06-01T16:38:22;29.00;30.00
12060;DHT22;6091;51.432;6.880;2023-06-01T16:40:49;28.90;29.90
12060;DHT22;6091;51.432;6.880;2023-06-01T16:43:16;28.90;30.00